Morro da Fumaca, Brazil
Current Conditions -  °F | °C
As of 3:00 PM on Thursday 27 Nov 2014 (Local Time) from SBCM Reporting Station
Scattered Clouds Scattered Clouds  
Wind Chill: 81°   Ceiling: Unl
Heat Index: 83°   Visibility: 6mi
Dew Point: 66°   Wind: 13mph
Humidity: 61%   Direction: 160°SSE
Pressure: 29.91"   Gusts: NA
Location:  28.71°S, 49.3°W
Report Text: SBCM 271700Z 16011KT 9999 SCT025 FEW030TCU 27/19 Q1013
Loading
Personal Weather Stations






























Interactive Weather Map New forecast layout! Learn more

10-Day Weather Forecast

Advertisements
Track Severe Weather on mobile